Time;durP1;ratioP1;P1;durP2;ratioP2;P2;SDS_P1;SDS_P2;PMS_P1;PMS_P2;Temp;Humidity;BMP_temperature;BMP_pressure;BME280_temperature;BME280_humidity;BME280_pressure;Samples;Min_cycle;Max_cycle;Signal;HPM_P1;HPM_P2
2021/06/07 05:35:59;;;;;;;16.02;12.98;;;;;;;;;;5446665;23;20052;-72
2021/06/07 05:41:09;;;;;;;15.88;14.23;;;;;;;;;;5177602;23;20644;-72
2021/06/07 05:43:35;;;;;;;16.55;14.77;;;;;;;;;;4932327;29;20367;-72
2021/06/07 05:46:01;;;;;;;18.23;15.15;;;;;;;;;;4953372;29;20467;-66
2021/06/07 05:48:27;;;;;;;17.00;15.20;;;;;;;;;;4953143;29;20118;-65
2021/06/07 05:50:53;;;;;;;18.25;15.65;;;;;;;;;;4952839;29;20027;-63
2021/06/07 05:53:20;;;;;;;18.17;15.80;;;;;;;;;;4950856;29;20032;-76
2021/06/07 05:55:46;;;;;;;19.02;16.30;;;;;;;;;;4952064;29;20030;-69
2021/06/07 05:58:17;;;;;;;19.00;16.98;;;;;;;;;;4953001;29;20050;-79
2021/06/07 06:00:45;;;;;;;18.58;16.58;;;;;;;;;;4953247;29;20019;-82
2021/06/07 06:03:11;;;;;;;20.25;17.58;;;;;;;;;;4952522;29;20084;-74
2021/06/07 06:05:37;;;;;;;20.48;17.05;;;;;;;;;;4950413;29;20039;-75
2021/06/07 06:08:05;;;;;;;20.77;18.23;;;;;;;;;;4953362;29;20110;-73
2021/06/07 06:10:31;;;;;;;20.48;17.83;;;;;;;;;;4952663;29;20502;-70
2021/06/07 06:12:57;;;;;;;20.58;18.55;;;;;;;;;;4952815;29;20475;-72
2021/06/07 06:15:24;;;;;;;20.35;17.67;;;;;;;;;;4953279;29;20027;-72
2021/06/07 06:17:50;;;;;;;19.50;17.42;;;;;;;;;;4947395;29;20046;-69
2021/06/07 06:20:17;;;;;;;25.38;19.60;;;;;;;;;;4951014;29;20031;-68
2021/06/07 06:22:43;;;;;;;27.45;19.58;;;;;;;;;;4952923;29;20060;-69
2021/06/07 06:25:10;;;;;;;23.02;19.77;;;;;;;;;;4952258;29;20042;-65
2021/06/07 06:27:37;;;;;;;22.48;17.45;;;;;;;;;;4935500;29;20063;-72
2021/06/07 06:30:23;;;;;;;24.25;17.58;;;;;;;;;;4952117;28;20135;-75
2021/06/07 06:32:51;;;;;;;23.52;18.33;;;;;;;;;;4953025;29;20035;-66
2021/06/07 06:35:17;;;;;;;21.25;17.38;;;;;;;;;;4952895;29;20122;-74
2021/06/07 06:37:44;;;;;;;19.77;17.15;;;;;;;;;;4952879;29;20039;-77
2021/06/07 06:40:11;;;;;;;18.80;16.75;;;;;;;;;;4952673;29;20031;-74
2021/06/07 06:42:39;;;;;;;20.20;15.80;;;;;;;;;;4952460;29;20062;-79
2021/06/07 06:45:06;;;;;;;18.02;14.05;;;;;;;;;;4952516;29;20106;-76
2021/06/07 06:47:32;;;;;;;17.85;15.95;;;;;;;;;;4953230;29;20023;-74
2021/06/07 06:49:58;;;;;;;18.60;16.65;;;;;;;;;;4926932;29;20042;-75
2021/06/07 06:52:25;;;;;;;18.73;16.65;;;;;;;;;;4944004;29;20079;-65
2021/06/07 06:54:51;;;;;;;17.27;15.48;;;;;;;;;;4941699;29;20410;-70
2021/06/07 06:57:17;;;;;;;16.63;14.25;;;;;;;;;;4933086;29;20059;-78
2021/06/07 06:59:43;;;;;;;18.67;15.18;;;;;;;;;;4950834;29;20383;-79
2021/06/07 07:02:09;;;;;;;21.17;14.18;;;;;;;;;;4952589;29;20357;-73
2021/06/07 07:04:36;;;;;;;20.52;15.15;;;;;;;;;;4945419;29;20023;-79
2021/06/07 07:07:02;;;;;;;18.02;14.73;;;;;;;;;;4938404;29;20036;-77
2021/06/07 07:09:28;;;;;;;17.00;14.43;;;;;;;;;;4932244;29;20118;-73
2021/06/07 07:11:54;;;;;;;18.10;13.50;;;;;;;;;;4933113;29;20119;-64
2021/06/07 07:14:20;;;;;;;17.48;14.93;;;;;;;;;;4932321;29;20090;-64
2021/06/07 07:16:46;;;;;;;18.73;14.48;;;;;;;;;;4931818;29;20434;-70
2021/06/07 07:19:13;;;;;;;17.15;12.82;;;;;;;;;;4943541;29;20110;-68
2021/06/07 07:21:39;;;;;;;16.98;12.65;;;;;;;;;;4932293;29;20487;-65
2021/06/07 07:24:05;;;;;;;15.57;10.38;;;;;;;;;;4933109;29;20032;-69
2021/06/07 07:26:31;;;;;;;15.32;10.43;;;;;;;;;;4932667;29;20425;-66
2021/06/07 07:28:57;;;;;;;19.45;13.52;;;;;;;;;;4932126;29;20667;-64
2021/06/07 07:31:23;;;;;;;16.77;12.63;;;;;;;;;;4932441;29;20440;-64
2021/06/07 07:33:50;;;;;;;15.90;12.77;;;;;;;;;;4933616;29;20051;-73
2021/06/07 07:36:16;;;;;;;16.15;13.88;;;;;;;;;;4932575;29;20506;-64
2021/06/07 07:38:42;;;;;;;16.67;12.52;;;;;;;;;;4933308;29;20028;-64
2021/06/07 07:41:11;;;;;;;17.50;13.68;;;;;;;;;;4933536;29;20071;-75
2021/06/07 07:43:37;;;;;;;13.85;11.32;;;;;;;;;;4936772;29;20036;-63
2021/06/07 07:46:03;;;;;;;13.18;10.07;;;;;;;;;;4936499;29;20050;-66
2021/06/07 07:48:29;;;;;;;12.68;10.40;;;;;;;;;;4936473;29;20024;-73
2021/06/07 07:50:56;;;;;;;10.27;8.65;;;;;;;;;;4936603;29;20576;-70
2021/06/07 07:53:24;;;;;;;12.40;7.97;;;;;;;;;;4936693;29;20039;-74
2021/06/07 07:55:50;;;;;;;13.75;8.07;;;;;;;;;;4936706;29;20566;-64
2021/06/07 07:58:16;;;;;;;9.15;7.75;;;;;;;;;;4936368;29;20032;-73
2021/06/07 08:00:43;;;;;;;13.63;8.82;;;;;;;;;;4936383;29;20024;-62
2021/06/07 08:03:09;;;;;;;10.35;7.68;;;;;;;;;;4936417;29;20034;-70
2021/06/07 08:05:36;;;;;;;9.07;7.15;;;;;;;;;;4936041;29;20030;-71
2021/06/07 08:08:02;;;;;;;11.23;6.72;;;;;;;;;;4936270;29;20028;-72
2021/06/07 08:10:29;;;;;;;10.57;7.97;;;;;;;;;;4936039;29;20075;-63
2021/06/07 08:12:55;;;;;;;10.00;7.78;;;;;;;;;;4936083;29;20039;-72
2021/06/07 08:15:21;;;;;;;11.32;8.35;;;;;;;;;;4935681;29;20039;-63
2021/06/07 08:17:48;;;;;;;11.32;8.52;;;;;;;;;;4936045;29;20036;-64
2021/06/07 08:20:17;;;;;;;8.45;7.47;;;;;;;;;;4951498;29;20058;-75
2021/06/07 08:22:43;;;;;;;14.60;9.45;;;;;;;;;;4955044;29;20023;-72
2021/06/07 08:25:10;;;;;;;12.18;9.40;;;;;;;;;;4955151;29;20034;-71
2021/06/07 08:27:36;;;;;;;11.23;9.00;;;;;;;;;;4955725;29;20028;-68
2021/06/07 08:30:03;;;;;;;12.60;9.77;;;;;;;;;;4955464;29;20027;-63
2021/06/07 08:32:29;;;;;;;10.25;7.15;;;;;;;;;;4953751;29;20039;-70
2021/06/07 08:34:55;;;;;;;13.98;10.27;;;;;;;;;;4955461;29;20110;-73
2021/06/07 08:37:21;;;;;;;14.07;9.23;;;;;;;;;;4955501;29;20134;-64
2021/06/07 08:39:47;;;;;;;11.38;9.05;;;;;;;;;;4955022;29;20082;-72
2021/06/07 08:42:13;;;;;;;12.50;8.68;;;;;;;;;;4954746;29;20054;-63
2021/06/07 08:44:40;;;;;;;13.30;7.82;;;;;;;;;;4955277;29;20038;-75
2021/06/07 08:47:06;;;;;;;10.90;7.45;;;;;;;;;;4955311;29;20032;-63
2021/06/07 08:49:32;;;;;;;10.50;4.97;;;;;;;;;;4955032;29;20023;-74
2021/06/07 08:51:58;;;;;;;8.77;6.18;;;;;;;;;;4954619;28;20109;-73
2021/06/07 08:54:24;;;;;;;8.23;5.30;;;;;;;;;;4954350;29;20119;-70
2021/06/07 08:56:51;;;;;;;5.95;4.15;;;;;;;;;;4954760;29;20400;-71
2021/06/07 08:59:17;;;;;;;8.48;5.10;;;;;;;;;;4955083;29;20016;-74
2021/06/07 09:01:44;;;;;;;10.45;4.88;;;;;;;;;;4955068;29;20027;-67
2021/06/07 09:04:10;;;;;;;7.72;4.05;;;;;;;;;;4954915;29;20034;-65
2021/06/07 09:06:39;;;;;;;8.00;5.05;;;;;;;;;;4954250;29;20741;-65
2021/06/07 09:09:06;;;;;;;7.20;4.88;;;;;;;;;;4954858;29;20023;-74
2021/06/07 09:11:41;;;;;;;6.88;5.00;;;;;;;;;;4954360;29;20032;-69
2021/06/07 09:14:17;;;;;;;7.90;5.78;;;;;;;;;;4955195;29;20032;-66
2021/06/07 09:16:43;;;;;;;5.68;4.60;;;;;;;;;;4954253;29;20369;-69
2021/06/07 09:19:20;;;;;;;8.68;5.47;;;;;;;;;;4938017;29;20031;-68
2021/06/07 09:21:46;;;;;;;8.45;4.95;;;;;;;;;;4935304;29;20036;-63
2021/06/07 09:24:14;;;;;;;9.88;4.75;;;;;;;;;;4917979;29;20423;-64
2021/06/07 09:26:42;;;;;;;6.60;4.72;;;;;;;;;;4918043;29;20035;-65
2021/06/07 09:29:20;;;;;;;6.93;4.88;;;;;;;;;;4935173;29;20468;-64
2021/06/07 09:31:51;;;;;;;8.25;3.70;;;;;;;;;;4935035;29;20032;-65
2021/06/07 09:34:24;;;;;;;7.35;5.10;;;;;;;;;;4935387;29;20030;-80
2021/06/07 09:36:50;;;;;;;6.75;5.28;;;;;;;;;;4935906;29;20036;-71
2021/06/07 09:39:23;;;;;;;7.18;5.53;;;;;;;;;;4935870;29;20027;-76
2021/06/07 09:41:54;;;;;;;9.40;5.60;;;;;;;;;;4934836;29;20062;-63
2021/06/07 09:44:30;;;;;;;7.20;4.60;;;;;;;;;;4935560;29;20024;-68
2021/06/07 09:47:06;;;;;;;4.88;3.97;;;;;;;;;;4935180;29;20055;-71
2021/06/07 09:49:37;;;;;;;7.82;4.78;;;;;;;;;;4935147;29;20032;-66
2021/06/07 09:52:03;;;;;;;4.80;3.85;;;;;;;;;;4935188;29;20037;-72
2021/06/07 09:54:29;;;;;;;6.57;3.97;;;;;;;;;;4934974;29;20063;-72
2021/06/07 09:56:57;;;;;;;7.40;3.95;;;;;;;;;;4934925;29;20043;-66
2021/06/07 09:59:43;;;;;;;5.05;3.28;;;;;;;;;;4934937;29;20079;-78
2021/06/07 10:02:14;;;;;;;6.97;3.85;;;;;;;;;;4934529;29;20050;-73
2021/06/07 10:04:51;;;;;;;5.95;4.13;;;;;;;;;;4934352;29;20039;-76
2021/06/07 10:07:18;;;;;;;5.68;3.70;;;;;;;;;;4913853;29;20051;-67
2021/06/07 10:10:02;;;;;;;5.40;3.78;;;;;;;;;;4926806;29;20395;-70
2021/06/07 10:12:28;;;;;;;6.47;4.30;;;;;;;;;;4928731;29;20043;-74
2021/06/07 10:14:54;;;;;;;7.20;4.05;;;;;;;;;;4934448;29;20028;-70
2021/06/07 10:17:21;;;;;;;6.00;3.47;;;;;;;;;;4934810;29;20045;-67
2021/06/07 10:19:59;;;;;;;4.57;3.13;;;;;;;;;;4934473;29;20081;-76
2021/06/07 10:22:25;;;;;;;5.22;3.38;;;;;;;;;;4934279;29;20028;-69
2021/06/07 10:24:51;;;;;;;7.22;3.53;;;;;;;;;;4934301;29;20031;-67
2021/06/07 10:27:17;;;;;;;4.38;3.72;;;;;;;;;;4933890;29;20066;-71
2021/06/07 10:29:43;;;;;;;4.50;3.60;;;;;;;;;;4932574;29;20032;-75
2021/06/07 10:32:17;;;;;;;7.07;3.63;;;;;;;;;;4933417;29;20062;-69
2021/06/07 10:34:46;;;;;;;5.43;3.80;;;;;;;;;;4934142;29;20058;-63
2021/06/07 10:37:12;;;;;;;9.05;4.05;;;;;;;;;;4934242;29;20044;-80
2021/06/07 10:39:38;;;;;;;11.38;3.97;;;;;;;;;;4934078;29;20484;-66
2021/06/07 10:42:10;;;;;;;5.80;4.07;;;;;;;;;;4930726;29;20071;-65
2021/06/07 10:44:38;;;;;;;5.20;3.13;;;;;;;;;;4933543;29;20062;-67
2021/06/07 10:47:07;;;;;;;6.65;3.05;;;;;;;;;;4934227;29;20058;-67
2021/06/07 10:49:35;;;;;;;5.28;2.33;;;;;;;;;;4934055;29;20032;-68
2021/06/07 10:52:07;;;;;;;5.75;3.42;;;;;;;;;;4933914;29;20059;-66
2021/06/07 10:54:34;;;;;;;6.93;3.65;;;;;;;;;;4933766;29;20091;-64
2021/06/07 10:57:19;;;;;;;8.63;3.20;;;;;;;;;;4933938;29;20130;-64
2021/06/07 10:59:49;;;;;;;5.43;2.95;;;;;;;;;;4934154;29;20023;-73
2021/06/07 11:02:17;;;;;;;5.25;2.85;;;;;;;;;;4934011;29;20028;-64
2021/06/07 11:04:43;;;;;;;4.03;3.10;;;;;;;;;;4933437;29;20079;-68
2021/06/07 11:07:21;;;;;;;4.25;3.15;;;;;;;;;;4933959;29;20487;-64
2021/06/07 11:10:06;;;;;;;4.63;2.80;;;;;;;;;;4934067;29;20035;-64
2021/06/07 11:12:33;;;;;;;6.10;3.08;;;;;;;;;;4933514;29;20485;-63
2021/06/07 11:15:16;;;;;;;5.30;3.00;;;;;;;;;;4933575;29;20043;-78
2021/06/07 11:17:43;;;;;;;6.10;3.03;;;;;;;;;;4936716;29;20043;-63
2021/06/07 11:20:10;;;;;;;5.22;3.00;;;;;;;;;;4937581;29;20063;-63
2021/06/07 11:22:55;;;;;;;6.13;3.00;;;;;;;;;;4937647;29;20031;-74
2021/06/07 11:25:21;;;;;;;6.00;2.90;;;;;;;;;;4936989;29;20042;-73
2021/06/07 11:27:47;;;;;;;3.50;2.78;;;;;;;;;;4937473;29;20091;-65
2021/06/07 11:30:18;;;;;;;7.60;3.20;;;;;;;;;;4937687;29;20060;-66
2021/06/07 11:32:44;;;;;;;3.53;2.85;;;;;;;;;;4937384;29;20361;-63
2021/06/07 11:35:29;;;;;;;9.68;3.83;;;;;;;;;;4937044;29;20023;-62
2021/06/07 11:37:55;;;;;;;4.47;2.70;;;;;;;;;;4937501;29;20043;-63
2021/06/07 11:40:39;;;;;;;3.30;2.72;;;;;;;;;;4936922;29;20055;-66
2021/06/07 11:43:05;;;;;;;3.97;2.70;;;;;;;;;;4936630;29;20138;-78
2021/06/07 11:45:40;;;;;;;3.97;2.90;;;;;;;;;;4937168;29;20059;-64
2021/06/07 11:48:06;;;;;;;4.47;2.80;;;;;;;;;;4937239;29;20114;-64
2021/06/07 11:50:37;;;;;;;3.90;2.88;;;;;;;;;;4936985;29;20055;-62
2021/06/07 11:53:12;;;;;;;3.35;2.78;;;;;;;;;;4937163;29;20495;-64
2021/06/07 11:55:39;;;;;;;6.70;3.03;;;;;;;;;;4937291;29;20080;-63
2021/06/07 11:58:05;;;;;;;4.93;2.80;;;;;;;;;;4936800;29;20627;-62
2021/06/07 12:00:36;;;;;;;4.20;2.80;;;;;;;;;;4937594;29;20111;-64
2021/06/07 12:03:06;;;;;;;3.63;2.83;;;;;;;;;;4937100;29;20028;-62
2021/06/07 12:05:32;;;;;;;6.55;3.30;;;;;;;;;;4936968;29;20083;-61
2021/06/07 12:08:03;;;;;;;3.97;2.70;;;;;;;;;;4937167;29;20033;-66
2021/06/07 12:10:29;;;;;;;4.30;2.92;;;;;;;;;;4936986;29;20552;-63
2021/06/07 12:12:55;;;;;;;3.60;2.80;;;;;;;;;;4936755;29;20531;-65
2021/06/07 12:15:21;;;;;;;5.10;3.08;;;;;;;;;;4936793;29;20038;-66
2021/06/07 12:17:53;;;;;;;4.32;3.00;;;;;;;;;;4936602;29;20046;-71
2021/06/07 12:20:20;;;;;;;5.25;2.80;;;;;;;;;;4936468;29;20118;-63
2021/06/07 12:22:48;;;;;;;4.90;2.83;;;;;;;;;;4952791;29;20035;-65
2021/06/07 12:28:18;;;;;;;2.80;2.40;;;;;;;;;;4936088;29;20036;-64
2021/06/07 12:30:47;;;;;;;5.00;3.25;;;;;;;;;;4946109;29;20051;-71
2021/06/07 12:33:13;;;;;;;6.07;3.40;;;;;;;;;;4940950;29;20023;-64
2021/06/07 12:35:39;;;;;;;6.60;3.40;;;;;;;;;;4948193;29;20071;-64
2021/06/07 12:38:07;;;;;;;6.13;2.97;;;;;;;;;;4939982;29;20043;-69
2021/06/07 12:40:33;;;;;;;4.53;2.88;;;;;;;;;;4948405;29;20129;-66
2021/06/07 12:43:02;;;;;;;3.38;2.35;;;;;;;;;;4942976;29;20118;-73
2021/06/07 12:45:35;;;;;;;3.70;2.20;;;;;;;;;;4948746;29;20617;-66
2021/06/07 12:48:11;;;;;;;4.38;2.70;;;;;;;;;;4955506;29;20031;-64
2021/06/07 12:50:38;;;;;;;4.13;2.53;;;;;;;;;;4955081;29;20103;-75
2021/06/07 12:53:04;;;;;;;3.80;2.63;;;;;;;;;;4954718;29;20032;-68
2021/06/07 12:55:33;;;;;;;3.72;2.55;;;;;;;;;;4955071;29;20086;-66
2021/06/07 12:58:05;;;;;;;3.90;2.72;;;;;;;;;;4955299;29;20110;-66
2021/06/07 13:00:37;;;;;;;4.47;2.70;;;;;;;;;;4954981;29;20140;-64
2021/06/07 13:03:05;;;;;;;4.82;2.67;;;;;;;;;;4955281;29;20086;-64
2021/06/07 13:05:32;;;;;;;3.85;2.63;;;;;;;;;;4954890;29;20090;-64
2021/06/07 13:08:07;;;;;;;3.97;2.50;;;;;;;;;;4954647;29;20109;-67
2021/06/07 13:10:46;;;;;;;4.38;2.55;;;;;;;;;;4954474;29;20038;-66
2021/06/07 13:13:20;;;;;;;5.05;2.70;;;;;;;;;;4954716;29;20043;-67
2021/06/07 13:15:59;;;;;;;3.65;2.60;;;;;;;;;;4954972;29;20030;-67
2021/06/07 13:18:25;;;;;;;5.18;2.60;;;;;;;;;;4954510;29;20050;-63
2021/06/07 13:21:01;;;;;;;4.22;2.35;;;;;;;;;;4954214;29;20049;-67
2021/06/07 13:23:38;;;;;;;7.18;2.80;;;;;;;;;;4954762;29;20023;-66
2021/06/07 13:26:21;;;;;;;4.28;2.67;;;;;;;;;;4954663;29;20039;-62
2021/06/07 13:28:47;;;;;;;5.40;2.50;;;;;;;;;;4953930;29;20423;-66
2021/06/07 13:31:14;;;;;;;4.20;2.42;;;;;;;;;;4954229;29;20731;-64
2021/06/07 13:33:40;;;;;;;3.72;2.25;;;;;;;;;;4954200;29;20065;-64
2021/06/07 13:36:07;;;;;;;6.20;2.75;;;;;;;;;;4954817;29;20027;-68
2021/06/07 13:38:35;;;;;;;2.80;2.30;;;;;;;;;;4954420;28;20031;-65
2021/06/07 13:41:15;;;;;;;3.33;2.60;;;;;;;;;;4953952;29;20559;-65
2021/06/07 13:43:41;;;;;;;3.67;2.90;;;;;;;;;;4953781;29;20031;-65
2021/06/07 13:46:22;;;;;;;3.78;2.90;;;;;;;;;;4953993;29;20027;-67
2021/06/07 13:48:48;;;;;;;5.45;2.70;;;;;;;;;;4954186;29;20119;-67
2021/06/07 13:51:14;;;;;;;7.43;2.42;;;;;;;;;;4953916;29;20031;-67
2021/06/07 13:53:41;;;;;;;5.68;2.40;;;;;;;;;;4934984;29;20035;-60
2021/06/07 13:56:09;;;;;;;3.17;2.40;;;;;;;;;;4949337;29;20383;-68
2021/06/07 13:58:39;;;;;;;2.88;2.58;;;;;;;;;;4952300;29;20027;-63
2021/06/07 14:01:06;;;;;;;3.90;2.55;;;;;;;;;;4948780;29;20031;-63
2021/06/07 14:03:33;;;;;;;3.92;2.47;;;;;;;;;;4945919;29;20031;-60
2021/06/07 14:06:00;;;;;;;3.53;2.38;;;;;;;;;;4947736;29;20098;-65
2021/06/07 14:08:27;;;;;;;5.03;2.40;;;;;;;;;;4954127;29;20035;-67
2021/06/07 14:10:54;;;;;;;3.75;2.55;;;;;;;;;;4953972;29;20135;-68
2021/06/07 14:13:21;;;;;;;5.20;2.55;;;;;;;;;;4952970;29;20039;-64
2021/06/07 14:15:48;;;;;;;3.22;2.25;;;;;;;;;;4953828;29;20085;-66
2021/06/07 14:18:14;;;;;;;4.05;2.60;;;;;;;;;;4953168;29;20059;-61
2021/06/07 14:20:45;;;;;;;3.78;2.45;;;;;;;;;;4953796;29;20027;-64
2021/06/07 14:25:59;;;;;;;4.30;2.80;;;;;;;;;;4943747;29;20074;-70
2021/06/07 14:28:25;;;;;;;5.72;2.60;;;;;;;;;;4951345;29;20023;-69
2021/06/07 14:30:52;;;;;;;4.00;2.47;;;;;;;;;;4953336;29;20546;-67
2021/06/07 14:33:18;;;;;;;5.03;2.50;;;;;;;;;;4947532;29;20027;-69
2021/06/07 14:35:44;;;;;;;2.88;2.30;;;;;;;;;;4942301;29;20107;-63
2021/06/07 14:38:11;;;;;;;4.03;2.58;;;;;;;;;;4942695;29;20074;-65
2021/06/07 14:40:38;;;;;;;3.40;2.42;;;;;;;;;;4942381;29;20047;-67
2021/06/07 14:43:10;;;;;;;5.20;2.47;;;;;;;;;;4942514;29;20063;-67
2021/06/07 14:45:36;;;;;;;6.95;2.55;;;;;;;;;;4942889;29;20019;-70
2021/06/07 14:48:03;;;;;;;5.50;2.30;;;;;;;;;;4944410;29;20031;-68
2021/06/07 14:50:29;;;;;;;6.28;2.97;;;;;;;;;;4942088;28;20086;-67
2021/06/07 14:52:55;;;;;;;7.13;2.30;;;;;;;;;;4942272;29;20023;-66
2021/06/07 14:55:23;;;;;;;4.05;2.40;;;;;;;;;;4944378;29;20062;-67
2021/06/07 14:57:49;;;;;;;4.18;2.45;;;;;;;;;;4942502;29;20102;-65
2021/06/07 15:00:16;;;;;;;7.70;3.95;;;;;;;;;;4944014;29;20102;-67
2021/06/07 15:02:42;;;;;;;3.13;2.55;;;;;;;;;;4942195;29;20491;-65
2021/06/07 15:05:08;;;;;;;4.03;2.65;;;;;;;;;;4943921;29;20062;-68
2021/06/07 15:07:34;;;;;;;3.53;2.50;;;;;;;;;;4943759;29;20023;-66
2021/06/07 15:10:00;;;;;;;6.75;3.03;;;;;;;;;;4941826;29;20355;-67
2021/06/07 15:12:26;;;;;;;4.00;2.45;;;;;;;;;;4943522;29;20035;-65
2021/06/07 15:14:54;;;;;;;4.10;2.30;;;;;;;;;;4941134;29;20026;-66
2021/06/07 15:17:21;;;;;;;4.85;2.22;;;;;;;;;;4940753;29;20126;-66
2021/06/07 15:19:47;;;;;;;2.85;2.30;;;;;;;;;;4941577;29;20031;-67
2021/06/07 15:22:14;;;;;;;3.85;2.20;;;;;;;;;;4942048;29;20042;-68
2021/06/07 15:24:40;;;;;;;3.80;2.42;;;;;;;;;;4945795;29;20486;-66
2021/06/07 15:27:08;;;;;;;3.67;2.63;;;;;;;;;;4953100;29;20030;-72
2021/06/07 15:29:35;;;;;;;4.88;2.88;;;;;;;;;;4953370;29;20049;-66
2021/06/07 15:32:01;;;;;;;2.75;2.15;;;;;;;;;;4952510;29;20027;-66
2021/06/07 15:34:30;;;;;;;3.53;2.80;;;;;;;;;;4953163;29;20035;-65
2021/06/07 15:36:57;;;;;;;5.88;2.90;;;;;;;;;;4953299;29;20050;-64
2021/06/07 15:39:24;;;;;;;8.68;3.35;;;;;;;;;;4952786;29;20098;-66
2021/06/07 15:41:50;;;;;;;8.48;3.88;;;;;;;;;;4946223;29;20066;-65
2021/06/07 15:44:17;;;;;;;3.35;2.60;;;;;;;;;;4935919;29;20483;-66
2021/06/07 15:46:43;;;;;;;4.72;2.88;;;;;;;;;;4933300;29;20035;-68
2021/06/07 15:49:09;;;;;;;6.63;2.90;;;;;;;;;;4933439;29;20039;-64
2021/06/07 15:51:36;;;;;;;7.10;2.78;;;;;;;;;;4941181;29;20023;-64
2021/06/07 15:54:02;;;;;;;6.90;2.70;;;;;;;;;;4939570;29;20039;-68
2021/06/07 15:56:28;;;;;;;4.28;2.97;;;;;;;;;;4942768;29;20055;-68
2021/06/07 15:58:55;;;;;;;4.20;2.70;;;;;;;;;;4941430;29;20356;-64
2021/06/07 16:01:23;;;;;;;3.97;3.08;;;;;;;;;;4941614;29;20031;-66
2021/06/07 16:03:49;;;;;;;5.07;3.10;;;;;;;;;;4945548;28;20505;-68
2021/06/07 16:06:17;;;;;;;6.03;2.83;;;;;;;;;;4955639;29;20058;-64
2021/06/07 16:08:43;;;;;;;4.05;2.78;;;;;;;;;;4955800;29;20387;-63
2021/06/07 16:11:10;;;;;;;4.45;2.80;;;;;;;;;;4956153;29;20111;-66
2021/06/07 16:13:40;;;;;;;5.32;3.08;;;;;;;;;;4956006;29;20028;-67
2021/06/07 16:16:10;;;;;;;7.53;2.78;;;;;;;;;;4956075;29;20027;-70
2021/06/07 16:21:17;;;;;;;4.35;2.97;;;;;;;;;;4955951;29;20058;-62
2021/06/07 16:23:43;;;;;;;4.40;2.88;;;;;;;;;;4955955;29;20510;-64
2021/06/07 16:26:09;;;;;;;5.38;3.05;;;;;;;;;;4955931;29;20032;-65
2021/06/07 16:28:36;;;;;;;4.57;2.80;;;;;;;;;;4955836;29;20431;-64
2021/06/07 16:31:02;;;;;;;8.50;3.70;;;;;;;;;;4955448;29;20118;-64
2021/06/07 16:33:28;;;;;;;6.32;4.40;;;;;;;;;;4955639;29;20506;-63
2021/06/07 16:35:55;;;;;;;5.85;2.40;;;;;;;;;;4952016;29;20042;-66
2021/06/07 16:38:21;;;;;;;3.70;2.40;;;;;;;;;;4955453;29;20038;-62
2021/06/07 16:40:47;;;;;;;4.72;2.10;;;;;;;;;;4950927;29;20062;-63
2021/06/07 16:43:17;;;;;;;3.72;2.40;;;;;;;;;;4941301;29;20039;-68
2021/06/07 16:45:44;;;;;;;4.53;2.40;;;;;;;;;;4936234;29;20036;-64
2021/06/07 16:48:10;;;;;;;5.75;2.30;;;;;;;;;;4935747;29;20023;-64
2021/06/07 16:50:37;;;;;;;5.40;2.17;;;;;;;;;;4935919;29;20024;-64
2021/06/07 16:53:04;;;;;;;4.07;2.20;;;;;;;;;;4935924;29;20035;-63
2021/06/07 16:55:30;;;;;;;4.07;2.15;;;;;;;;;;4935911;29;20091;-66
2021/06/07 16:57:56;;;;;;;4.30;2.50;;;;;;;;;;4917748;29;20055;-64
2021/06/07 17:00:26;;;;;;;3.95;2.10;;;;;;;;;;4935638;29;20023;-66
2021/06/07 17:02:52;;;;;;;4.53;2.20;;;;;;;;;;4935584;29;20120;-70
2021/06/07 17:05:18;;;;;;;4.57;2.40;;;;;;;;;;4935755;29;20400;-65
2021/06/07 17:07:44;;;;;;;4.60;2.10;;;;;;;;;;4935709;29;20035;-68
2021/06/07 17:10:11;;;;;;;6.85;2.30;;;;;;;;;;4935964;29;20038;-69
2021/06/07 17:12:45;;;;;;;2.97;2.15;;;;;;;;;;4935714;29;20034;-65
2021/06/07 17:15:31;;;;;;;3.95;2.40;;;;;;;;;;4934897;29;20055;-67
2021/06/07 17:18:01;;;;;;;9.20;2.40;;;;;;;;;;4935446;29;20036;-63
2021/06/07 17:20:27;;;;;;;4.38;2.30;;;;;;;;;;4935773;29;20028;-66
2021/06/07 17:22:54;;;;;;;5.78;2.58;;;;;;;;;;4934427;29;20063;-64
2021/06/07 17:25:20;;;;;;;4.82;2.60;;;;;;;;;;4935378;29;20031;-63
2021/06/07 17:27:47;;;;;;;6.45;2.58;;;;;;;;;;4935339;29;20388;-63
2021/06/07 17:30:14;;;;;;;4.38;2.60;;;;;;;;;;4935073;29;20020;-64
2021/06/07 17:32:40;;;;;;;3.90;2.20;;;;;;;;;;4940644;29;20467;-68
2021/06/07 17:35:07;;;;;;;5.20;2.50;;;;;;;;;;4950962;29;20045;-64
2021/06/07 17:37:33;;;;;;;6.57;2.50;;;;;;;;;;4937575;29;20039;-70
2021/06/07 17:39:59;;;;;;;7.70;2.70;;;;;;;;;;4934817;29;20083;-66
2021/06/07 17:42:26;;;;;;;4.90;2.85;;;;;;;;;;4934182;29;20102;-62
2021/06/07 17:44:52;;;;;;;6.57;3.03;;;;;;;;;;4934393;29;20038;-67
2021/06/07 17:47:18;;;;;;;6.10;3.00;;;;;;;;;;4934808;29;20507;-70
2021/06/07 17:49:44;;;;;;;4.22;2.90;;;;;;;;;;4916733;29;20035;-63
2021/06/07 17:52:11;;;;;;;5.13;2.83;;;;;;;;;;4934692;29;20035;-62
2021/06/07 17:54:38;;;;;;;7.80;2.55;;;;;;;;;;4935016;29;20023;-68
2021/06/07 17:57:05;;;;;;;5.65;2.30;;;;;;;;;;4933676;29;20039;-72
2021/06/07 17:59:31;;;;;;;6.28;3.08;;;;;;;;;;4933973;29;20107;-65
2021/06/07 18:01:57;;;;;;;5.70;2.47;;;;;;;;;;4934615;29;20036;-64
2021/06/07 18:04:23;;;;;;;7.47;2.80;;;;;;;;;;4934632;29;20787;-67
2021/06/07 18:06:49;;;;;;;6.60;2.67;;;;;;;;;;4934474;29;20055;-65
2021/06/07 18:09:18;;;;;;;6.45;3.00;;;;;;;;;;4934246;29;20035;-64
2021/06/07 18:11:44;;;;;;;4.00;2.58;;;;;;;;;;4934557;29;20082;-64
2021/06/07 18:14:10;;;;;;;6.93;3.28;;;;;;;;;;4934442;29;20039;-66
2021/06/07 18:16:36;;;;;;;5.93;2.50;;;;;;;;;;4934345;29;20399;-64
2021/06/07 18:19:02;;;;;;;4.93;2.45;;;;;;;;;;4934294;29;20028;-64
2021/06/07 18:21:28;;;;;;;7.03;2.97;;;;;;;;;;4934089;29;20028;-66
2021/06/07 18:23:54;;;;;;;3.90;2.03;;;;;;;;;;4934265;29;20090;-67
2021/06/07 18:26:20;;;;;;;4.03;2.70;;;;;;;;;;4933059;29;20034;-64
2021/06/07 18:28:48;;;;;;;6.97;2.70;;;;;;;;;;4929842;29;20508;-63
2021/06/07 18:31:14;;;;;;;6.65;2.83;;;;;;;;;;4934256;29;20110;-64
2021/06/07 18:33:40;;;;;;;6.00;2.70;;;;;;;;;;4934224;29;20036;-66
2021/06/07 18:36:06;;;;;;;8.57;3.10;;;;;;;;;;4934392;29;20092;-68
2021/06/07 18:38:33;;;;;;;5.05;2.70;;;;;;;;;;4934244;29;20047;-65
2021/06/07 18:40:59;;;;;;;5.90;2.67;;;;;;;;;;4934064;29;20134;-65
2021/06/07 18:43:25;;;;;;;5.00;2.50;;;;;;;;;;4934169;29;20504;-66
2021/06/07 18:45:52;;;;;;;4.22;2.53;;;;;;;;;;4934262;29;20035;-65
2021/06/07 18:48:18;;;;;;;5.65;2.80;;;;;;;;;;4934026;29;20059;-64
2021/06/07 18:50:45;;;;;;;5.95;2.75;;;;;;;;;;4934227;29;20028;-66
2021/06/07 18:53:12;;;;;;;6.38;2.50;;;;;;;;;;4940683;29;20485;-67
2021/06/07 18:55:38;;;;;;;5.65;2.95;;;;;;;;;;4941904;29;20574;-67
2021/06/07 18:58:04;;;;;;;9.40;3.20;;;;;;;;;;4944167;29;20066;-64
2021/06/07 19:00:30;;;;;;;8.90;4.75;;;;;;;;;;4942864;29;20023;-67
2021/06/07 19:02:56;;;;;;;9.43;2.90;;;;;;;;;;4942214;29;20025;-62
2021/06/07 19:05:22;;;;;;;9.75;3.65;;;;;;;;;;4941993;29;20055;-65
2021/06/07 19:07:49;;;;;;;6.45;3.45;;;;;;;;;;4943413;29;20027;-62
2021/06/07 19:10:16;;;;;;;7.30;4.03;;;;;;;;;;4943764;29;20034;-61
2021/06/07 19:12:42;;;;;;;9.27;4.38;;;;;;;;;;4942174;29;20096;-68
2021/06/07 19:15:09;;;;;;;7.05;3.80;;;;;;;;;;4943382;29;20054;-63
2021/06/07 19:17:37;;;;;;;8.20;4.07;;;;;;;;;;4943471;29;20395;-61
2021/06/07 19:20:03;;;;;;;6.63;3.25;;;;;;;;;;4941975;29;20107;-66
2021/06/07 19:22:29;;;;;;;8.95;4.28;;;;;;;;;;4943405;29;20059;-63
2021/06/07 19:24:55;;;;;;;6.25;3.55;;;;;;;;;;4943478;29;20020;-63
2021/06/07 19:27:22;;;;;;;9.32;5.05;;;;;;;;;;4941646;29;20028;-65
2021/06/07 19:29:48;;;;;;;11.05;5.40;;;;;;;;;;4936202;29;20028;-64
2021/06/07 19:32:14;;;;;;;10.27;5.97;;;;;;;;;;4944185;29;20058;-61
2021/06/07 19:34:40;;;;;;;7.88;5.03;;;;;;;;;;4942942;29;20023;-66
2021/06/07 19:37:06;;;;;;;7.43;5.18;;;;;;;;;;4942441;29;20028;-61
2021/06/07 19:39:33;;;;;;;7.47;5.10;;;;;;;;;;4946795;29;20119;-62
2021/06/07 19:41:59;;;;;;;8.98;4.75;;;;;;;;;;4946861;29;20048;-62
2021/06/07 19:44:28;;;;;;;5.88;4.00;;;;;;;;;;4946237;29;20023;-64
2021/06/07 19:46:54;;;;;;;7.20;3.85;;;;;;;;;;4945125;29;20020;-64
2021/06/07 19:49:20;;;;;;;8.02;4.32;;;;;;;;;;4946795;29;20474;-70
2021/06/07 19:51:47;;;;;;;10.82;5.35;;;;;;;;;;4941673;29;20031;-69
2021/06/07 19:54:13;;;;;;;11.27;4.63;;;;;;;;;;4936842;29;20028;-70
2021/06/07 19:56:39;;;;;;;7.97;4.20;;;;;;;;;;4936997;29;20040;-62
2021/06/07 19:59:05;;;;;;;9.50;3.67;;;;;;;;;;4937404;29;20047;-72
2021/06/07 20:01:31;;;;;;;9.85;3.80;;;;;;;;;;4936805;29;20411;-70
2021/06/07 20:03:57;;;;;;;8.88;4.53;;;;;;;;;;4937108;29;20487;-62
2021/06/07 20:06:24;;;;;;;7.68;4.28;;;;;;;;;;4936998;29;20090;-62
2021/06/07 20:08:54;;;;;;;7.70;4.50;;;;;;;;;;4936984;29;20032;-61
2021/06/07 20:11:20;;;;;;;9.45;4.32;;;;;;;;;;4937132;29;20044;-69
2021/06/07 20:13:46;;;;;;;7.15;4.43;;;;;;;;;;4939210;29;20038;-83
2021/06/07 20:16:12;;;;;;;10.48;4.22;;;;;;;;;;4944886;29;20035;-71
2021/06/07 20:18:38;;;;;;;9.73;5.82;;;;;;;;;;4943591;29;20094;-74
2021/06/07 20:21:04;;;;;;;8.63;5.20;;;;;;;;;;4956113;29;20031;-63
2021/06/07 20:23:30;;;;;;;8.82;4.85;;;;;;;;;;4955601;29;20035;-75
2021/06/07 20:25:56;;;;;;;9.23;4.82;;;;;;;;;;4953137;29;20042;-61
2021/06/07 20:28:23;;;;;;;9.70;5.10;;;;;;;;;;4955153;29;20125;-67